createdAt,value
2017-12-29T07:00:02.637Z,0.00
2017-12-29T07:01:02.519Z,0.00
2017-12-29T07:02:55.479Z,0.00
2017-12-29T07:03:55.395Z,0.00
2017-12-29T07:05:48.302Z,4.00
2017-12-29T07:06:48.294Z,4.00
2017-12-29T07:08:41.180Z,0.00
2017-12-29T07:09:41.082Z,4.00
2017-12-29T07:11:34.034Z,4.00
2017-12-29T07:12:33.940Z,4.00
2017-12-29T07:14:26.820Z,8.00
2017-12-29T07:15:26.787Z,8.00
2017-12-29T07:17:19.704Z,16.00
2017-12-29T07:18:19.637Z,16.00
2017-12-29T07:20:12.514Z,20.00
2017-12-29T07:21:12.488Z,24.00
2017-12-29T07:23:05.439Z,32.00
2017-12-29T07:24:05.339Z,36.00
2017-12-29T07:25:58.218Z,44.00
2017-12-29T07:26:58.204Z,52.00
2017-12-29T07:28:51.053Z,64.00
2017-12-29T07:29:50.987Z,68.00
2017-12-29T07:31:44.089Z,84.00
2017-12-29T07:32:45.076Z,96.00
2017-12-29T07:34:36.911Z,112.00
2017-12-29T07:35:36.843Z,124.00
2017-12-29T07:37:29.791Z,140.00
2017-12-29T07:38:29.692Z,156.00
2017-12-29T07:40:22.613Z,180.00
2017-12-29T07:41:22.541Z,192.00
2017-12-29T07:43:15.426Z,216.00
2017-12-29T07:44:15.393Z,232.00
2017-12-29T07:46:08.340Z,260.00
2017-12-29T07:47:08.247Z,276.00
2017-12-29T07:49:01.128Z,304.00
2017-12-29T07:50:01.097Z,320.00
2017-12-29T07:51:54.006Z,348.00
2017-12-29T07:52:53.947Z,368.00
2017-12-29T07:54:46.825Z,400.00
2017-12-29T07:55:46.794Z,416.00
2017-12-29T07:57:39.704Z,452.00
2017-12-29T07:58:39.705Z,472.00
2017-12-29T08:00:32.523Z,508.00
2017-12-29T08:01:32.498Z,524.00
2017-12-29T08:03:25.403Z,556.00
2017-12-29T08:04:25.413Z,572.00
2017-12-29T08:06:18.224Z,604.00
2017-12-29T08:07:18.196Z,620.00
2017-12-29T08:09:11.118Z,652.00
2017-12-29T08:10:11.050Z,668.00
2017-12-29T08:12:04.001Z,700.00
2017-12-29T08:13:03.897Z,712.00
2017-12-29T08:14:56.843Z,740.00
2017-12-29T08:15:56.750Z,756.00
2017-12-29T08:17:49.635Z,784.00
2017-12-29T08:18:49.600Z,796.00
2017-12-29T08:20:42.507Z,824.00
2017-12-29T08:21:42.454Z,836.00
2017-12-29T08:23:35.394Z,864.00
2017-12-29T08:24:35.302Z,876.00
2017-12-29T08:26:28.244Z,900.00
2017-12-29T08:27:28.159Z,912.00
2017-12-29T08:29:21.127Z,932.00
2017-12-29T08:30:21.003Z,944.00
2017-12-29T08:32:13.908Z,964.00
2017-12-29T08:33:13.912Z,980.00
2017-12-29T08:35:06.796Z,1004.00
2017-12-29T08:36:06.704Z,1016.00
2017-12-29T08:37:59.648Z,1036.00
2017-12-29T08:38:59.555Z,1044.00
2017-12-29T08:40:52.498Z,1064.00
2017-12-29T08:41:52.401Z,1080.00
2017-12-29T08:43:45.353Z,1148.00
2017-12-29T08:44:45.253Z,1156.00
2017-12-29T08:46:38.201Z,1164.00
2017-12-29T08:47:38.107Z,1184.00
2017-12-29T08:49:31.013Z,1116.00
2017-12-29T08:50:30.960Z,1144.00
2017-12-29T08:52:23.841Z,1192.00
2017-12-29T08:53:23.802Z,1220.00
2017-12-29T08:55:16.708Z,1420.00
2017-12-29T08:56:16.657Z,1420.00
2017-12-29T08:58:09.598Z,1204.00
2017-12-29T08:59:09.511Z,1180.00
2017-12-29T09:01:02.969Z,1236.00
2017-12-29T09:02:02.872Z,1272.00
2017-12-29T09:03:55.756Z,1316.00
2017-12-29T09:04:55.716Z,1328.00
2017-12-29T09:06:48.646Z,1316.00
2017-12-29T09:07:48.566Z,1356.00
2017-12-29T09:09:41.517Z,1380.00
2017-12-29T09:10:41.422Z,1376.00
2017-12-29T09:12:35.389Z,1364.00
2017-12-29T09:13:34.233Z,1352.00
2017-12-29T09:15:27.152Z,1388.00
2017-12-29T09:16:27.179Z,1388.00
2017-12-29T09:18:20.017Z,1440.00
2017-12-29T09:19:20.029Z,1444.00
2017-12-29T09:21:12.918Z,1436.00
2017-12-29T09:22:12.823Z,1456.00
2017-12-29T09:24:05.771Z,1488.00
2017-12-29T09:25:05.674Z,1496.00
2017-12-29T09:26:58.590Z,1508.00
2017-12-29T09:27:58.525Z,1508.00
2017-12-29T09:29:51.404Z,1484.00
2017-12-29T09:30:51.377Z,1496.00
2017-12-29T09:32:44.281Z,1512.00
2017-12-29T09:33:44.222Z,1508.00
2017-12-29T09:35:37.138Z,1524.00
2017-12-29T09:36:37.073Z,1528.00
2017-12-29T09:38:29.980Z,1540.00
2017-12-29T09:39:29.931Z,1536.00
2017-12-29T09:41:22.787Z,1548.00
2017-12-29T09:42:22.744Z,1560.00
2017-12-29T09:44:15.612Z,1584.00
2017-12-29T09:45:15.582Z,1600.00
2017-12-29T09:47:08.419Z,1628.00
2017-12-29T09:48:08.431Z,1644.00
2017-12-29T09:50:01.272Z,1676.00
2017-12-29T09:51:01.224Z,1696.00
2017-12-29T09:52:54.111Z,1744.00
2017-12-29T09:53:54.038Z,1752.00
2017-12-29T09:55:46.957Z,1768.00
2017-12-29T09:56:46.925Z,1816.00
2017-12-29T09:58:39.839Z,1884.00
2017-12-29T09:59:39.770Z,1868.00
2017-12-29T10:01:32.658Z,1764.00
2017-12-29T10:02:32.627Z,1712.00
2017-12-29T10:04:25.493Z,1688.00
2017-12-29T10:05:25.433Z,1688.00
2017-12-29T10:07:18.458Z,1676.00
2017-12-29T10:08:18.489Z,1672.00
2017-12-29T10:10:11.349Z,1676.00
2017-12-29T10:11:11.282Z,1680.00
2017-12-29T10:13:04.167Z,1712.00
2017-12-29T10:14:04.130Z,1744.00
2017-12-29T10:15:57.045Z,1804.00
2017-12-29T10:16:56.983Z,1820.00
2017-12-29T10:18:49.823Z,1844.00
2017-12-29T10:19:49.789Z,1860.00
2017-12-29T10:21:42.844Z,1860.00
2017-12-29T10:22:43.867Z,1856.00
2017-12-29T10:24:35.661Z,1804.00
2017-12-29T10:25:35.638Z,1796.00
2017-12-29T10:27:28.490Z,1824.00
2017-12-29T10:28:28.433Z,1884.00
2017-12-29T10:30:21.258Z,1952.00
2017-12-29T10:31:21.235Z,1992.00
2017-12-29T10:33:14.582Z,2072.00
2017-12-29T10:34:14.510Z,2148.00
2017-12-29T10:36:07.357Z,2312.00
2017-12-29T10:37:07.315Z,2432.00
2017-12-29T10:39:00.357Z,2592.00
2017-12-29T10:40:00.300Z,2668.00
2017-12-29T10:41:53.248Z,2868.00
2017-12-29T10:42:53.155Z,2952.00
2017-12-29T10:44:46.105Z,2972.00
2017-12-29T10:45:46.001Z,2944.00
2017-12-29T10:47:38.950Z,3008.00
2017-12-29T10:48:38.845Z,3096.00
2017-12-29T10:50:31.798Z,3356.00
2017-12-29T10:51:31.701Z,3400.00
2017-12-29T10:53:24.582Z,3420.00
2017-12-29T10:54:24.611Z,3404.00
2017-12-29T10:56:21.491Z,3364.00
2017-12-29T10:57:17.443Z,3384.00
2017-12-29T10:59:10.859Z,3492.00
2017-12-29T11:00:10.766Z,3568.00
2017-12-29T11:02:04.180Z,3648.00
2017-12-29T11:03:04.131Z,3656.00
2017-12-29T11:04:57.012Z,3616.00
2017-12-29T11:05:56.989Z,3576.00
2017-12-29T11:07:49.919Z,3536.00
2017-12-29T11:08:49.832Z,3548.00
2017-12-29T11:10:42.770Z,3536.00
2017-12-29T11:11:42.694Z,3528.00
2017-12-29T11:13:35.635Z,3540.00
2017-12-29T11:14:35.529Z,3540.00
2017-12-29T11:16:28.429Z,3516.00
2017-12-29T11:17:28.437Z,3508.00
2017-12-29T11:19:21.282Z,3492.00
2017-12-29T11:20:21.231Z,3488.00
2017-12-29T11:22:14.175Z,3504.00
2017-12-29T11:23:14.076Z,3500.00
2017-12-29T11:25:07.030Z,3468.00
2017-12-29T11:26:06.930Z,3456.00
2017-12-29T11:27:59.819Z,3480.00
2017-12-29T11:28:59.779Z,3476.00
2017-12-29T11:30:52.688Z,3492.00
2017-12-29T11:31:52.627Z,3508.00
2017-12-29T11:33:45.578Z,3520.00
2017-12-29T11:34:45.492Z,3508.00
2017-12-29T11:36:38.426Z,3468.00
2017-12-29T11:37:38.332Z,3432.00
2017-12-29T11:39:31.278Z,3356.00
2017-12-29T11:40:31.186Z,3240.00
2017-12-29T11:42:24.097Z,3236.00
2017-12-29T11:43:24.031Z,3332.00
2017-12-29T11:45:16.913Z,3528.00
2017-12-29T11:46:16.892Z,3592.00
2017-12-29T11:48:09.831Z,3644.00
2017-12-29T11:49:09.735Z,3660.00
2017-12-29T11:51:02.613Z,3792.00
2017-12-29T11:52:02.585Z,3896.00
2017-12-29T11:53:55.493Z,4056.00
2017-12-29T11:54:55.444Z,4088.00
2017-12-29T11:56:48.322Z,4056.00
2017-12-29T11:57:48.286Z,4024.00
2017-12-29T11:59:41.200Z,3996.00
2017-12-29T12:00:42.033Z,3944.00
2017-12-29T12:02:35.163Z,3788.00
2017-12-29T12:03:33.987Z,3708.00
2017-12-29T12:05:26.938Z,3540.00
2017-12-29T12:06:26.835Z,3420.00
2017-12-29T12:08:19.780Z,3092.00
2017-12-29T12:09:19.744Z,2900.00
2017-12-29T12:11:12.635Z,2748.00
2017-12-29T12:12:12.536Z,2796.00
2017-12-29T12:14:05.369Z,2940.00
2017-12-29T12:15:05.341Z,3028.00
2017-12-29T12:16:58.538Z,3272.00
2017-12-29T12:17:58.371Z,3352.00
2017-12-29T12:19:51.223Z,3412.00
2017-12-29T12:20:51.191Z,3400.00
2017-12-29T12:22:44.145Z,3284.00
2017-12-29T12:23:44.040Z,3180.00
2017-12-29T12:25:36.988Z,2916.00
2017-12-29T12:26:36.890Z,2728.00
2017-12-29T12:28:29.806Z,2448.00
2017-12-29T12:29:29.740Z,2360.00
2017-12-29T12:31:22.691Z,2316.00
2017-12-29T12:32:22.594Z,2340.00
2017-12-29T12:34:15.644Z,2380.00
2017-12-29T12:35:15.445Z,2384.00
2017-12-29T12:37:08.388Z,2368.00
2017-12-29T12:38:08.293Z,2336.00
2017-12-29T12:40:01.238Z,2268.00
2017-12-29T12:41:01.153Z,2240.00
2017-12-29T12:42:54.029Z,2164.00
2017-12-29T12:43:53.997Z,2156.00
2017-12-29T12:45:46.912Z,2236.00
2017-12-29T12:46:46.857Z,2280.00
2017-12-29T12:48:39.727Z,2348.00
2017-12-29T12:49:39.700Z,2320.00
2017-12-29T12:51:32.619Z,2196.00
2017-12-29T12:52:32.558Z,2156.00
2017-12-29T12:54:25.494Z,2252.00
2017-12-29T12:55:25.399Z,2316.00
2017-12-29T12:57:18.317Z,2424.00
2017-12-29T12:58:18.252Z,2448.00
2017-12-29T13:00:11.141Z,2540.00
2017-12-29T13:01:11.156Z,2612.00
2017-12-29T13:03:04.042Z,2780.00
2017-12-29T13:04:04.191Z,2932.00
2017-12-29T13:05:56.895Z,3180.00
2017-12-29T13:06:56.802Z,3300.00
2017-12-29T13:08:49.720Z,3424.00
2017-12-29T13:09:49.649Z,3416.00
2017-12-29T13:11:42.603Z,3292.00
2017-12-29T13:12:42.511Z,3152.00
2017-12-29T13:14:35.416Z,2740.00
2017-12-29T13:15:35.431Z,2540.00
2017-12-29T13:17:28.328Z,2284.00
2017-12-29T13:18:28.231Z,2196.00
2017-12-29T13:20:21.214Z,1908.00
2017-12-29T13:21:21.212Z,1688.00
2017-12-29T13:23:14.103Z,1528.00
2017-12-29T13:24:14.024Z,1264.00
2017-12-29T13:26:06.953Z,1236.00
2017-12-29T13:27:06.858Z,1204.00
2017-12-29T13:28:59.796Z,1040.00
2017-12-29T13:29:59.738Z,944.00
2017-12-29T13:31:52.607Z,940.00
2017-12-29T13:32:52.615Z,948.00
2017-12-29T13:34:45.433Z,952.00
2017-12-29T13:35:45.418Z,960.00
2017-12-29T13:37:38.324Z,912.00
2017-12-29T13:38:38.261Z,828.00
2017-12-29T13:40:31.674Z,876.00
2017-12-29T13:41:31.112Z,1000.00
2017-12-29T13:43:24.022Z,1152.00
2017-12-29T13:44:23.954Z,1136.00
2017-12-29T13:46:17.375Z,924.00
2017-12-29T13:47:16.809Z,824.00
2017-12-29T13:49:09.726Z,808.00
2017-12-29T13:50:09.656Z,784.00
2017-12-29T13:52:02.541Z,804.00
2017-12-29T13:53:02.507Z,812.00
2017-12-29T13:54:55.424Z,848.00
2017-12-29T13:55:55.373Z,868.00
2017-12-29T13:57:48.242Z,908.00
2017-12-29T13:58:48.211Z,924.00
2017-12-29T14:00:41.154Z,932.00
2017-12-29T14:01:41.059Z,928.00
2017-12-29T14:03:33.938Z,916.00
2017-12-29T14:04:33.911Z,916.00
2017-12-29T14:06:26.857Z,880.00
2017-12-29T14:07:26.762Z,840.00
2017-12-29T14:09:19.642Z,820.00
2017-12-29T14:10:19.608Z,784.00
2017-12-29T14:12:12.565Z,700.00
2017-12-29T14:13:12.459Z,668.00
2017-12-29T14:15:05.337Z,616.00
2017-12-29T14:16:05.315Z,588.00
2017-12-29T14:17:58.259Z,528.00
2017-12-29T14:18:58.160Z,468.00
2017-12-29T14:20:51.080Z,412.00
2017-12-29T14:21:51.086Z,392.00
2017-12-29T14:23:43.929Z,380.00
2017-12-29T14:24:43.872Z,368.00
2017-12-29T14:26:36.747Z,300.00
2017-12-29T14:27:36.716Z,272.00
2017-12-29T14:29:29.629Z,212.00
2017-12-29T14:30:29.559Z,208.00
2017-12-29T14:32:22.447Z,212.00
2017-12-29T14:33:22.480Z,200.00
2017-12-29T14:35:15.326Z,196.00
2017-12-29T14:36:15.346Z,188.00
2017-12-29T14:38:08.144Z,180.00
2017-12-29T14:39:08.174Z,164.00
2017-12-29T14:41:01.038Z,144.00
2017-12-29T14:42:00.966Z,132.00
2017-12-29T14:43:53.847Z,104.00
2017-12-29T14:44:53.879Z,100.00
2017-12-29T14:46:46.772Z,88.00
2017-12-29T14:47:46.678Z,96.00
2017-12-29T14:49:39.553Z,96.00
2017-12-29T14:50:39.577Z,108.00
2017-12-29T14:52:32.447Z,124.00
2017-12-29T14:53:32.429Z,140.00
2017-12-29T14:55:25.337Z,180.00
2017-12-29T14:56:25.216Z,212.00
2017-12-29T14:58:18.677Z,256.00
2017-12-29T14:59:18.582Z,272.00
2017-12-29T15:01:11.464Z,272.00
2017-12-29T15:02:11.430Z,260.00
2017-12-29T15:04:04.349Z,248.00
2017-12-29T15:05:04.277Z,260.00
2017-12-29T15:06:57.228Z,248.00
2017-12-29T15:07:57.129Z,240.00
2017-12-29T15:09:50.040Z,220.00
2017-12-29T15:10:49.981Z,196.00
2017-12-29T15:12:42.934Z,168.00
2017-12-29T15:13:42.830Z,152.00
2017-12-29T15:15:35.745Z,120.00
2017-12-29T15:16:35.681Z,108.00
2017-12-29T15:18:28.569Z,100.00
2017-12-29T15:19:28.531Z,96.00
2017-12-29T15:21:21.450Z,80.00
2017-12-29T15:22:21.440Z,72.00
2017-12-29T15:24:14.332Z,60.00
2017-12-29T15:25:14.234Z,52.00
2017-12-29T15:27:07.696Z,48.00
2017-12-29T15:28:07.595Z,44.00
2017-12-29T15:30:00.479Z,40.00
2017-12-29T15:31:00.445Z,48.00
2017-12-29T15:32:53.367Z,44.00
2017-12-29T15:33:53.306Z,44.00
2017-12-29T15:35:46.244Z,44.00
2017-12-29T15:36:46.162Z,48.00
2017-12-29T15:38:39.125Z,40.00
2017-12-29T15:39:38.998Z,36.00
2017-12-29T15:41:31.949Z,32.00
2017-12-29T15:42:31.853Z,28.00
2017-12-29T15:44:24.798Z,24.00
2017-12-29T15:45:24.699Z,20.00
2017-12-29T15:47:17.646Z,16.00
2017-12-29T15:48:17.561Z,16.00
2017-12-29T15:50:10.501Z,12.00
2017-12-29T15:51:10.402Z,8.00
2017-12-29T15:53:03.285Z,8.00
2017-12-29T15:54:03.451Z,8.00
2017-12-29T15:55:56.165Z,4.00
2017-12-29T15:56:56.102Z,8.00
2017-12-29T15:58:49.050Z,4.00
2017-12-29T15:59:48.947Z,4.00
2017-12-29T16:01:41.869Z,4.00
2017-12-29T16:02:43.911Z,4.00
2017-12-29T16:04:34.684Z,0.00
2017-12-29T16:05:34.664Z,0.00
2017-12-29T16:07:27.599Z,0.00
2017-12-29T16:08:27.515Z,0.00
2017-12-29T16:10:20.450Z,0.00
2017-12-29T16:11:20.364Z,0.00
2017-12-29T16:13:13.266Z,0.00
2017-12-29T16:14:13.263Z,0.00
2017-12-29T16:16:06.088Z,0.00
2017-12-29T16:17:06.052Z,0.00
2017-12-29T16:18:58.972Z,0.00
2017-12-29T16:19:58.966Z,0.00
2017-12-29T16:21:51.856Z,0.00
2017-12-29T16:22:51.764Z,0.00
2017-12-29T16:24:44.675Z,0.00
2017-12-29T16:25:44.666Z,0.00
2017-12-29T16:27:37.556Z,0.00
2017-12-29T16:28:37.460Z,0.00
2017-12-29T16:30:30.406Z,0.00
2017-12-29T16:31:30.318Z,0.00
2017-12-29T16:33:23.185Z,0.00
2017-12-29T16:34:23.217Z,0.00
2017-12-29T16:36:16.080Z,0.00
2017-12-29T16:37:16.066Z,0.00
2017-12-29T16:39:08.899Z,0.00
2017-12-29T16:40:08.882Z,0.00
2017-12-29T16:42:01.912Z,0.00
2017-12-29T16:43:01.720Z,0.00
2017-12-29T16:44:54.692Z,0.00
2017-12-29T16:45:54.659Z,0.00
2017-12-29T16:47:47.679Z,0.00
2017-12-29T16:48:47.608Z,0.00
2017-12-29T16:50:40.771Z,0.00
2017-12-29T16:51:40.566Z,0.00
2017-12-29T16:53:33.722Z,0.00
2017-12-29T16:54:33.514Z,0.00
2017-12-29T16:56:26.679Z,0.00
2017-12-29T16:57:26.463Z,0.00
2017-12-29T16:59:19.489Z,0.00
2017-12-29T17:00:19.588Z,0.00
2017-12-29T17:02:12.410Z,0.00
2017-12-29T17:03:12.380Z,0.00
2017-12-29T17:05:05.527Z,0.00
2017-12-29T17:06:05.330Z,0.00
2017-12-29T17:07:58.231Z,0.00
2017-12-29T17:09:02.765Z,0.00
2017-12-29T17:10:51.125Z,0.00
2017-12-29T17:13:04.003Z,0.00
2017-12-29T17:14:03.971Z,0.00
2017-12-29T17:15:56.996Z,0.00
2017-12-29T17:16:56.822Z,0.00
2017-12-29T17:18:50.281Z,0.00
2017-12-29T17:19:50.191Z,0.00
2017-12-29T17:21:43.128Z,0.00
2017-12-29T17:22:43.042Z,0.00
2017-12-29T17:24:35.918Z,0.00
2017-12-29T17:25:35.949Z,0.00
2017-12-29T17:27:29.320Z,0.00
2017-12-29T17:28:29.258Z,0.00
2017-12-29T17:30:22.144Z,0.00
2017-12-29T17:31:22.164Z,0.00
2017-12-29T17:33:15.056Z,0.00
2017-12-29T17:34:14.958Z,0.00
2017-12-29T17:36:07.955Z,0.00
2017-12-29T17:37:07.809Z,0.00
2017-12-29T17:39:01.277Z,0.00
2017-12-29T17:40:01.248Z,0.00
2017-12-29T17:41:54.061Z,0.00
2017-12-29T17:42:54.082Z,0.00
2017-12-29T17:44:46.943Z,0.00
2017-12-29T17:45:46.880Z,0.00
2017-12-29T17:47:39.824Z,0.00
2017-12-29T17:48:39.727Z,0.00
2017-12-29T17:50:32.681Z,0.00
2017-12-29T17:51:32.591Z,0.00
2017-12-29T17:53:25.534Z,0.00
2017-12-29T17:54:25.431Z,0.00
2017-12-29T17:56:18.380Z,0.00
2017-12-29T17:57:18.283Z,0.00
2017-12-29T17:59:11.230Z,0.00
2017-12-29T18:00:11.141Z,0.00
2017-12-29T18:02:04.083Z,0.00
2017-12-29T18:03:03.988Z,0.00
2017-12-29T18:04:56.873Z,0.00
2017-12-29T18:05:56.904Z,0.00
2017-12-29T18:07:49.762Z,0.00
2017-12-29T18:08:49.757Z,0.00
2017-12-29T18:10:42.645Z,0.00
2017-12-29T18:11:42.556Z,0.00
2017-12-29T18:13:35.461Z,0.00
2017-12-29T18:14:35.406Z,0.00
2017-12-29T18:16:28.351Z,0.00
2017-12-29T18:17:28.257Z,0.00
2017-12-29T18:19:21.206Z,0.00
2017-12-29T18:20:21.110Z,0.00
2017-12-29T18:22:14.049Z,0.00
2017-12-29T18:23:13.966Z,0.00
2017-12-29T18:25:06.944Z,0.00
2017-12-29T18:26:06.812Z,0.00
2017-12-29T18:28:00.714Z,0.00
2017-12-29T18:29:00.742Z,0.00
2017-12-29T18:30:53.629Z,0.00
2017-12-29T18:31:53.570Z,0.00
2017-12-29T18:33:46.504Z,0.00
2017-12-29T18:34:46.400Z,0.00
2017-12-29T18:36:39.300Z,0.00
2017-12-29T18:37:39.336Z,0.00
2017-12-29T18:39:32.136Z,0.00
2017-12-29T18:40:32.112Z,0.00
2017-12-29T18:42:25.014Z,0.00
2017-12-29T18:43:24.948Z,0.00
2017-12-29T18:45:17.832Z,0.00
2017-12-29T18:46:17.856Z,0.00
2017-12-29T18:48:10.726Z,0.00
2017-12-29T18:49:10.655Z,0.00
2017-12-29T18:51:03.532Z,0.00
2017-12-29T18:52:03.508Z,0.00
2017-12-29T18:53:56.410Z,0.00
2017-12-29T18:54:56.402Z,0.00
2017-12-29T18:56:49.362Z,0.00
2017-12-29T18:57:49.216Z,0.00
2017-12-29T18:59:42.128Z,0.00
2017-12-29T19:00:42.136Z,0.00
2017-12-29T19:02:36.033Z,0.00
2017-12-29T19:03:34.915Z,0.00
2017-12-29T19:05:27.833Z,0.00
2017-12-29T19:06:27.775Z,0.00
2017-12-29T19:08:20.650Z,0.00
2017-12-29T19:09:20.611Z,0.00
2017-12-29T19:11:13.528Z,0.00
2017-12-29T19:12:13.492Z,0.00
2017-12-29T19:14:06.354Z,0.00
2017-12-29T19:15:06.328Z,0.00
2017-12-29T19:16:59.294Z,0.00
2017-12-29T19:17:59.170Z,0.00
2017-12-29T19:19:52.059Z,0.00
2017-12-29T19:20:52.024Z,0.00
2017-12-29T19:22:44.949Z,0.00
2017-12-29T19:23:44.881Z,0.00
2017-12-29T19:25:37.823Z,0.00
2017-12-29T19:26:37.729Z,0.00
2017-12-29T19:28:30.677Z,0.00
2017-12-29T19:29:30.582Z,0.00
2017-12-29T19:31:23.535Z,0.00
2017-12-29T19:32:23.436Z,0.00
2017-12-29T19:34:16.354Z,0.00
2017-12-29T19:35:16.294Z,0.00
2017-12-29T19:37:09.240Z,0.00
2017-12-29T19:38:09.138Z,0.00
2017-12-29T19:40:02.082Z,0.00
2017-12-29T19:41:01.996Z,0.00
2017-12-29T19:42:54.937Z,0.00
2017-12-29T19:43:54.841Z,0.00
2017-12-29T19:45:47.845Z,0.00
2017-12-29T19:46:47.951Z,0.00
2017-12-29T19:48:40.939Z,0.00
2017-12-29T19:49:40.735Z,0.00
2017-12-29T19:51:33.662Z,0.00
2017-12-29T19:52:33.766Z,0.00
2017-12-29T19:54:26.644Z,0.00
2017-12-29T19:55:26.451Z,0.00
2017-12-29T19:57:19.456Z,0.00
2017-12-29T19:58:19.403Z,0.00
2017-12-29T20:00:12.407Z,0.00
2017-12-29T20:01:12.339Z,0.00
2017-12-29T20:03:06.438Z,0.00
2017-12-29T20:04:05.296Z,0.00
2017-12-29T20:05:58.279Z,0.00
2017-12-29T20:06:58.248Z,0.00
2017-12-29T20:08:51.314Z,0.00
2017-12-29T20:09:51.201Z,0.00
2017-12-29T20:11:44.183Z,0.00
2017-12-29T20:12:44.318Z,0.00
2017-12-29T20:14:37.210Z,0.00
2017-12-29T20:15:37.111Z,0.00
2017-12-29T20:17:30.087Z,0.00
2017-12-29T20:18:30.063Z,0.00
2017-12-29T20:20:23.071Z,0.00
2017-12-29T20:21:23.010Z,0.00
2017-12-29T20:23:16.001Z,0.00
2017-12-29T20:24:16.130Z,0.00
2017-12-29T20:26:09.129Z,0.00
2017-12-29T20:27:08.921Z,0.00
2017-12-29T20:29:01.897Z,0.00
2017-12-29T20:30:01.876Z,0.00
2017-12-29T20:31:54.888Z,0.00
2017-12-29T20:32:54.817Z,0.00
2017-12-29T20:34:48.019Z,0.00
2017-12-29T20:35:47.773Z,0.00
2017-12-29T20:37:40.790Z,0.00
2017-12-29T20:38:40.729Z,0.00
2017-12-29T20:40:33.712Z,0.00
2017-12-29T20:41:33.683Z,0.00
2017-12-29T20:43:26.839Z,0.00
2017-12-29T20:44:26.634Z,0.00
2017-12-29T20:46:19.620Z,0.00
2017-12-29T20:47:19.587Z,0.00
2017-12-29T20:49:12.630Z,0.00
2017-12-29T20:50:12.548Z,0.00
2017-12-29T20:52:05.523Z,0.00
2017-12-29T20:53:05.496Z,0.00
2017-12-29T20:54:58.650Z,0.00
2017-12-29T20:55:58.449Z,0.00
2017-12-29T20:57:51.501Z,0.00
2017-12-29T20:58:51.406Z,0.00
2017-12-29T21:00:44.556Z,0.00
2017-12-29T21:01:44.355Z,0.00
2017-12-29T21:03:37.340Z,0.00
2017-12-29T21:04:37.305Z,0.00
2017-12-29T21:06:30.462Z,0.00
2017-12-29T21:07:30.255Z,0.00
2017-12-29T21:09:23.316Z,0.00
2017-12-29T21:10:23.238Z,0.00
2017-12-29T21:12:16.365Z,0.00
2017-12-29T21:13:16.166Z,0.00
2017-12-29T21:15:09.131Z,0.00
2017-12-29T21:16:09.021Z,0.00
2017-12-29T21:18:02.025Z,0.00
2017-12-29T21:19:01.964Z,0.00
2017-12-29T21:20:54.915Z,0.00
2017-12-29T21:21:54.830Z,0.00
2017-12-29T21:23:47.971Z,0.00
2017-12-29T21:24:47.776Z,0.00
2017-12-29T21:26:40.653Z,0.00
2017-12-29T21:27:40.686Z,0.00
2017-12-29T21:29:33.677Z,0.00
2017-12-29T21:30:33.481Z,0.00
2017-12-29T21:32:26.426Z,0.00
2017-12-29T21:33:26.322Z,0.00
2017-12-29T21:35:19.271Z,0.00
2017-12-29T21:36:19.339Z,0.00
2017-12-29T21:38:12.057Z,0.00
2017-12-29T21:39:12.088Z,0.00
2017-12-29T21:41:05.075Z,0.00
2017-12-29T21:42:04.879Z,0.00
2017-12-29T21:43:57.760Z,0.00
2017-12-29T21:44:57.789Z,0.00
2017-12-29T21:46:50.630Z,0.00
2017-12-29T21:47:50.576Z,0.00
2017-12-29T21:49:43.539Z,0.00
2017-12-29T21:50:43.428Z,0.00
2017-12-29T21:52:36.349Z,0.00
2017-12-29T21:53:36.277Z,0.00
2017-12-29T21:55:29.225Z,0.00
2017-12-29T21:56:29.143Z,0.00
2017-12-29T21:58:22.041Z,0.00
2017-12-29T21:59:21.983Z,0.00
2017-12-29T22:01:14.863Z,0.00
2017-12-29T22:02:14.832Z,0.00
2017-12-29T22:04:07.847Z,0.00
2017-12-29T22:05:07.780Z,0.00
2017-12-29T22:07:00.837Z,0.00
2017-12-29T22:08:00.728Z,0.00
2017-12-29T22:09:53.750Z,0.00
2017-12-29T22:10:53.688Z,0.00
2017-12-29T22:12:46.668Z,0.00
2017-12-29T22:13:46.635Z,0.00
2017-12-29T22:15:39.796Z,0.00
2017-12-29T22:16:39.592Z,0.00
2017-12-29T22:18:32.573Z,0.00
2017-12-29T22:19:32.546Z,0.00
2017-12-29T22:21:25.714Z,0.00
2017-12-29T22:22:25.496Z,0.00
2017-12-29T22:24:18.655Z,0.00
2017-12-29T22:25:18.447Z,0.00
2017-12-29T22:27:11.602Z,0.00
2017-12-29T22:28:11.399Z,0.00
2017-12-29T22:30:04.393Z,0.00
2017-12-29T22:31:04.376Z,0.00
2017-12-29T22:32:57.368Z,0.00
2017-12-29T22:33:57.473Z,0.00
2017-12-29T22:35:50.478Z,0.00
2017-12-29T22:36:50.261Z,0.00
2017-12-29T22:38:43.416Z,0.00
2017-12-29T22:39:43.210Z,0.00
2017-12-29T22:41:36.381Z,0.00
2017-12-29T22:42:36.166Z,0.00
2017-12-29T22:44:29.324Z,0.00
2017-12-29T22:45:29.125Z,0.00
2017-12-29T22:47:22.278Z,0.00
2017-12-29T22:48:22.067Z,0.00
2017-12-29T22:50:15.229Z,0.00
2017-12-29T22:51:15.028Z,0.00
2017-12-29T22:53:08.012Z,0.00
2017-12-29T22:54:07.975Z,0.00
2017-12-29T22:56:01.129Z,0.00
2017-12-29T22:57:00.931Z,0.00
2017-12-29T22:58:53.919Z,0.00
2017-12-29T22:59:53.886Z,0.00
2017-12-29T23:01:47.037Z,0.00
2017-12-29T23:02:46.853Z,0.00
2017-12-29T23:04:39.816Z,0.00
2017-12-29T23:05:39.791Z,0.00
2017-12-29T23:07:33.355Z,0.00
2017-12-29T23:08:33.256Z,0.00
2017-12-29T23:10:26.241Z,0.00
2017-12-29T23:11:26.371Z,0.00
2017-12-29T23:13:19.226Z,0.00
2017-12-29T23:14:19.324Z,0.00
2017-12-29T23:16:12.140Z,0.00
2017-12-29T23:17:12.278Z,0.00
2017-12-29T23:19:05.134Z,0.00
2017-12-29T23:20:05.232Z,0.00
2017-12-29T23:21:58.055Z,0.00
2017-12-29T23:22:58.185Z,0.00
2017-12-29T23:24:51.173Z,0.00
2017-12-29T23:25:50.972Z,0.00
2017-12-29T23:27:44.126Z,0.00
2017-12-29T23:28:43.926Z,0.00
2017-12-29T23:30:37.082Z,0.00
2017-12-29T23:31:36.872Z,0.00
2017-12-29T23:33:30.029Z,0.00
2017-12-29T23:34:29.825Z,0.00
2017-12-29T23:36:22.986Z,0.00
2017-12-29T23:37:22.786Z,0.00
2017-12-29T23:39:15.939Z,0.00
2017-12-29T23:40:15.733Z,0.00
2017-12-29T23:42:08.750Z,0.00
2017-12-29T23:43:08.688Z,0.00
2017-12-29T23:45:01.696Z,0.00
2017-12-29T23:46:01.639Z,0.00
2017-12-29T23:47:54.792Z,0.00
2017-12-29T23:48:54.591Z,0.00
2017-12-29T23:50:47.655Z,0.00
2017-12-29T23:51:47.545Z,0.00
2017-12-29T23:53:40.565Z,0.00
2017-12-29T23:54:40.503Z,0.00
2017-12-29T23:56:33.550Z,0.00
2017-12-29T23:57:33.457Z,0.00
2017-12-29T23:59:26.458Z,0.00
